<?xml version="1.0" encoding="UTF-8" standalone="no" ?>
<gpx xmlns="http://www.topografix.com/GPX/1/1" xmlns:xsi="http://www.w3.org/2001/XMLSchema-instance" xsi:schemaLocation="http://www.topografix.com/GPX/1/1 http://www.topografix.com/GPX/1/1/gpx.xsd" version="1.1" creator="VisuGPX - https://www.visugpx.com">
  <metadata>
    <name>RPM Gr 2 : TOURETTE-LEVENS - CHATEAUNEUF</name>
    <desc><![CDATA[Départ au Plan, Tourette-Levens - baisse de Bordinas par le GR 51 - Mont Macaron - Chapelle St-Joseph - ruines de Chateauneuf - Col de Chateauneuf - A/R vers Terre Forte - retour à Chateauneuf Villevieille.]]></desc>
  </metadata>
  <trk>
    <name><![CDATA[Randonnée du 31/10/2018 à 11:37]]></name>
    <trkseg>
      <trkpt lat="43.79111" lon="7.27382">
        <ele>365</ele>
        <time>2018-10-31T15:21:54Z</time>
      </trkpt>
      <trkpt lat="43.78986" lon="7.27476">
        <ele>373</ele>
        <time>2018-10-31T15:21:59Z</time>
      </trkpt>
      <trkpt lat="43.78964" lon="7.27478">
        <ele>373</ele>
        <time>2018-10-31T15:22:04Z</time>
      </trkpt>
      <trkpt lat="43.78876" lon="7.27476">
        <ele>373</ele>
        <time>2018-10-31T15:22:09Z</time>
      </trkpt>
      <trkpt lat="43.78778" lon="7.27592">
        <ele>386</ele>
        <time>2018-10-31T15:22:14Z</time>
      </trkpt>
      <trkpt lat="43.78659" lon="7.27597">
        <ele>389</ele>
        <time>2018-10-31T15:22:19Z</time>
      </trkpt>
      <trkpt lat="43.78633" lon="7.27601">
        <ele>390</ele>
        <time>2018-10-31T15:22:24Z</time>
      </trkpt>
      <trkpt lat="43.78574" lon="7.27691">
        <ele>393</ele>
        <time>2018-10-31T15:22:29Z</time>
      </trkpt>
      <trkpt lat="43.78447" lon="7.27708">
        <ele>387</ele>
        <time>2018-10-31T15:22:34Z</time>
      </trkpt>
      <trkpt lat="43.78394" lon="7.27766">
        <ele>378</ele>
        <time>2018-10-31T15:22:39Z</time>
      </trkpt>
      <trkpt lat="43.7838" lon="7.27871">
        <ele>358</ele>
        <time>2018-10-31T15:22:44Z</time>
      </trkpt>
      <trkpt lat="43.7834" lon="7.27912">
        <ele>345</ele>
        <time>2018-10-31T15:22:49Z</time>
      </trkpt>
      <trkpt lat="43.78318" lon="7.27965">
        <ele>327</ele>
        <time>2018-10-31T15:22:54Z</time>
      </trkpt>
      <trkpt lat="43.78214" lon="7.28045">
        <ele>304</ele>
        <time>2018-10-31T15:22:59Z</time>
      </trkpt>
      <trkpt lat="43.78171" lon="7.28096">
        <ele>294</ele>
        <time>2018-10-31T15:23:04Z</time>
      </trkpt>
      <trkpt lat="43.78138" lon="7.28146">
        <ele>277</ele>
        <time>2018-10-31T15:23:09Z</time>
      </trkpt>
      <trkpt lat="43.78138" lon="7.28193">
        <ele>261</ele>
        <time>2018-10-31T15:23:14Z</time>
      </trkpt>
      <trkpt lat="43.7805" lon="7.28302">
        <ele>258</ele>
        <time>2018-10-31T15:23:19Z</time>
      </trkpt>
      <trkpt lat="43.7801" lon="7.28309">
        <ele>255</ele>
        <time>2018-10-31T15:23:24Z</time>
      </trkpt>
      <trkpt lat="43.7794" lon="7.283">
        <ele>251</ele>
        <time>2018-10-31T15:23:29Z</time>
      </trkpt>
      <trkpt lat="43.77877" lon="7.28425">
        <ele>259</ele>
        <time>2018-10-31T15:23:34Z</time>
      </trkpt>
      <trkpt lat="43.77852" lon="7.28472">
        <ele>262</ele>
        <time>2018-10-31T15:23:39Z</time>
      </trkpt>
      <trkpt lat="43.77846" lon="7.28489">
        <ele>266</ele>
        <time>2018-10-31T15:23:44Z</time>
      </trkpt>
      <trkpt lat="43.77838" lon="7.28511">
        <ele>273</ele>
        <time>2018-10-31T15:23:49Z</time>
      </trkpt>
      <trkpt lat="43.77807" lon="7.28536">
        <ele>277</ele>
        <time>2018-10-31T15:23:54Z</time>
      </trkpt>
      <trkpt lat="43.77807" lon="7.28551">
        <ele>282</ele>
        <time>2018-10-31T15:23:59Z</time>
      </trkpt>
      <trkpt lat="43.77757" lon="7.28639">
        <ele>285</ele>
        <time>2018-10-31T15:24:04Z</time>
      </trkpt>
      <trkpt lat="43.77742" lon="7.28605">
        <ele>274</ele>
        <time>2018-10-31T15:24:09Z</time>
      </trkpt>
      <trkpt lat="43.77698" lon="7.28618">
        <ele>279</ele>
        <time>2018-10-31T15:24:14Z</time>
      </trkpt>
      <trkpt lat="43.77694" lon="7.28639">
        <ele>286</ele>
        <time>2018-10-31T15:24:19Z</time>
      </trkpt>
      <trkpt lat="43.77565" lon="7.28695">
        <ele>307</ele>
        <time>2018-10-31T15:24:24Z</time>
      </trkpt>
      <trkpt lat="43.77509" lon="7.28719">
        <ele>317</ele>
        <time>2018-10-31T15:24:29Z</time>
      </trkpt>
      <trkpt lat="43.77472" lon="7.28747">
        <ele>330</ele>
        <time>2018-10-31T15:24:34Z</time>
      </trkpt>
      <trkpt lat="43.77384" lon="7.28839">
        <ele>343</ele>
        <time>2018-10-31T15:24:39Z</time>
      </trkpt>
      <trkpt lat="43.77355" lon="7.28875">
        <ele>343</ele>
        <time>2018-10-31T15:24:44Z</time>
      </trkpt>
      <trkpt lat="43.77341" lon="7.28976">
        <ele>331</ele>
        <time>2018-10-31T15:24:49Z</time>
      </trkpt>
      <trkpt lat="43.77371" lon="7.2903">
        <ele>342</ele>
        <time>2018-10-31T15:24:54Z</time>
      </trkpt>
      <trkpt lat="43.77395" lon="7.29073">
        <ele>346</ele>
        <time>2018-10-31T15:24:59Z</time>
      </trkpt>
      <trkpt lat="43.77387" lon="7.29092">
        <ele>343</ele>
        <time>2018-10-31T15:25:04Z</time>
      </trkpt>
      <trkpt lat="43.77412" lon="7.29152">
        <ele>353</ele>
        <time>2018-10-31T15:25:09Z</time>
      </trkpt>
      <trkpt lat="43.77399" lon="7.29152">
        <ele>356</ele>
        <time>2018-10-31T15:25:14Z</time>
      </trkpt>
      <trkpt lat="43.77393" lon="7.29223">
        <ele>366</ele>
        <time>2018-10-31T15:25:19Z</time>
      </trkpt>
      <trkpt lat="43.77412" lon="7.29317">
        <ele>376</ele>
        <time>2018-10-31T15:25:24Z</time>
      </trkpt>
      <trkpt lat="43.77395" lon="7.29377">
        <ele>389</ele>
        <time>2018-10-31T15:25:29Z</time>
      </trkpt>
      <trkpt lat="43.77336" lon="7.29429">
        <ele>411</ele>
        <time>2018-10-31T15:25:34Z</time>
      </trkpt>
      <trkpt lat="43.77306" lon="7.29543">
        <ele>415</ele>
        <time>2018-10-31T15:25:39Z</time>
      </trkpt>
      <trkpt lat="43.77296" lon="7.29594">
        <ele>424</ele>
        <time>2018-10-31T15:25:44Z</time>
      </trkpt>
      <trkpt lat="43.77243" lon="7.29631">
        <ele>445</ele>
        <time>2018-10-31T15:25:49Z</time>
      </trkpt>
      <trkpt lat="43.77178" lon="7.29674">
        <ele>467</ele>
        <time>2018-10-31T15:25:54Z</time>
      </trkpt>
      <trkpt lat="43.77189" lon="7.29736">
        <ele>470</ele>
        <time>2018-10-31T15:25:59Z</time>
      </trkpt>
      <trkpt lat="43.77195" lon="7.29837">
        <ele>473</ele>
        <time>2018-10-31T15:26:04Z</time>
      </trkpt>
      <trkpt lat="43.7717" lon="7.29931">
        <ele>476</ele>
        <time>2018-10-31T15:26:09Z</time>
      </trkpt>
      <trkpt lat="43.77175" lon="7.29989">
        <ele>473</ele>
        <time>2018-10-31T15:26:14Z</time>
      </trkpt>
      <trkpt lat="43.77305" lon="7.2992">
        <ele>482</ele>
        <time>2018-10-31T15:26:19Z</time>
      </trkpt>
      <trkpt lat="43.77371" lon="7.29772">
        <ele>478</ele>
        <time>2018-10-31T15:26:24Z</time>
      </trkpt>
      <trkpt lat="43.77446" lon="7.29667">
        <ele>475</ele>
        <time>2018-10-31T15:26:29Z</time>
      </trkpt>
      <trkpt lat="43.775" lon="7.29613">
        <ele>468</ele>
        <time>2018-10-31T15:26:34Z</time>
      </trkpt>
      <trkpt lat="43.77528" lon="7.29611">
        <ele>464</ele>
        <time>2018-10-31T15:26:39Z</time>
      </trkpt>
      <trkpt lat="43.77585" lon="7.29635">
        <ele>474</ele>
        <time>2018-10-31T15:26:44Z</time>
      </trkpt>
      <trkpt lat="43.77599" lon="7.29611">
        <ele>486</ele>
        <time>2018-10-31T15:26:49Z</time>
      </trkpt>
      <trkpt lat="43.77588" lon="7.29568">
        <ele>481</ele>
        <time>2018-10-31T15:26:54Z</time>
      </trkpt>
      <trkpt lat="43.77595" lon="7.29525">
        <ele>480</ele>
        <time>2018-10-31T15:26:59Z</time>
      </trkpt>
      <trkpt lat="43.77688" lon="7.29414">
        <ele>524</ele>
        <time>2018-10-31T15:27:04Z</time>
      </trkpt>
      <trkpt lat="43.77684" lon="7.29356">
        <ele>521</ele>
        <time>2018-10-31T15:27:09Z</time>
      </trkpt>
      <trkpt lat="43.77702" lon="7.29296">
        <ele>525</ele>
        <time>2018-10-31T15:27:14Z</time>
      </trkpt>
      <trkpt lat="43.77748" lon="7.29242">
        <ele>543</ele>
        <time>2018-10-31T15:27:19Z</time>
      </trkpt>
      <trkpt lat="43.7779" lon="7.29311">
        <ele>554</ele>
        <time>2018-10-31T15:27:24Z</time>
      </trkpt>
      <trkpt lat="43.77866" lon="7.29397">
        <ele>582</ele>
        <time>2018-10-31T15:27:29Z</time>
      </trkpt>
      <trkpt lat="43.77912" lon="7.29446">
        <ele>593</ele>
        <time>2018-10-31T15:27:34Z</time>
      </trkpt>
      <trkpt lat="43.77959" lon="7.2953">
        <ele>609</ele>
        <time>2018-10-31T15:27:39Z</time>
      </trkpt>
      <trkpt lat="43.77966" lon="7.29577">
        <ele>620</ele>
        <time>2018-10-31T15:27:44Z</time>
      </trkpt>
      <trkpt lat="43.78045" lon="7.29674">
        <ele>641</ele>
        <time>2018-10-31T15:27:49Z</time>
      </trkpt>
      <trkpt lat="43.7796" lon="7.29781">
        <ele>662</ele>
        <time>2018-10-31T15:27:54Z</time>
      </trkpt>
      <trkpt lat="43.77937" lon="7.29841">
        <ele>666</ele>
        <time>2018-10-31T15:27:59Z</time>
      </trkpt>
      <trkpt lat="43.77948" lon="7.29961">
        <ele>694</ele>
        <time>2018-10-31T15:28:04Z</time>
      </trkpt>
      <trkpt lat="43.77976" lon="7.3003">
        <ele>708</ele>
        <time>2018-10-31T15:28:09Z</time>
      </trkpt>
      <trkpt lat="43.78028" lon="7.30184">
        <ele>738</ele>
        <time>2018-10-31T15:28:14Z</time>
      </trkpt>
      <trkpt lat="43.78063" lon="7.30234">
        <ele>750</ele>
        <time>2018-10-31T15:28:19Z</time>
      </trkpt>
      <trkpt lat="43.78078" lon="7.30298">
        <ele>768</ele>
        <time>2018-10-31T15:28:24Z</time>
      </trkpt>
      <trkpt lat="43.7807" lon="7.30311">
        <ele>772</ele>
        <time>2018-10-31T15:28:29Z</time>
      </trkpt>
      <trkpt lat="43.78107" lon="7.30384">
        <ele>792</ele>
        <time>2018-10-31T15:28:34Z</time>
      </trkpt>
      <trkpt lat="43.78152" lon="7.30394">
        <ele>786</ele>
        <time>2018-10-31T15:28:39Z</time>
      </trkpt>
      <trkpt lat="43.78182" lon="7.30418">
        <ele>784</ele>
        <time>2018-10-31T15:28:44Z</time>
      </trkpt>
      <trkpt lat="43.78307" lon="7.30444">
        <ele>779</ele>
        <time>2018-10-31T15:28:49Z</time>
      </trkpt>
      <trkpt lat="43.78413" lon="7.30433">
        <ele>770</ele>
        <time>2018-10-31T15:28:54Z</time>
      </trkpt>
      <trkpt lat="43.78492" lon="7.305">
        <ele>772</ele>
        <time>2018-10-31T15:28:59Z</time>
      </trkpt>
      <trkpt lat="43.78523" lon="7.30644">
        <ele>763</ele>
        <time>2018-10-31T15:29:04Z</time>
      </trkpt>
      <trkpt lat="43.78653" lon="7.30626">
        <ele>742</ele>
        <time>2018-10-31T15:29:09Z</time>
      </trkpt>
      <trkpt lat="43.78701" lon="7.30624">
        <ele>741</ele>
        <time>2018-10-31T15:29:14Z</time>
      </trkpt>
      <trkpt lat="43.7878" lon="7.30575">
        <ele>739</ele>
        <time>2018-10-31T15:29:19Z</time>
      </trkpt>
      <trkpt lat="43.78884" lon="7.30465">
        <ele>739</ele>
        <time>2018-10-31T15:29:24Z</time>
      </trkpt>
      <trkpt lat="43.78952" lon="7.30399">
        <ele>735</ele>
        <time>2018-10-31T15:29:29Z</time>
      </trkpt>
      <trkpt lat="43.78987" lon="7.30397">
        <ele>732</ele>
        <time>2018-10-31T15:29:34Z</time>
      </trkpt>
      <trkpt lat="43.79038" lon="7.30422">
        <ele>726</ele>
        <time>2018-10-31T15:29:39Z</time>
      </trkpt>
      <trkpt lat="43.79104" lon="7.30392">
        <ele>720</ele>
        <time>2018-10-31T15:29:44Z</time>
      </trkpt>
      <trkpt lat="43.79169" lon="7.303">
        <ele>712</ele>
        <time>2018-10-31T15:29:49Z</time>
      </trkpt>
      <trkpt lat="43.79278" lon="7.30227">
        <ele>710</ele>
        <time>2018-10-31T15:29:54Z</time>
      </trkpt>
      <trkpt lat="43.79341" lon="7.30208">
        <ele>709</ele>
        <time>2018-10-31T15:29:59Z</time>
      </trkpt>
      <trkpt lat="43.79381" lon="7.30096">
        <ele>720</ele>
        <time>2018-10-31T15:30:04Z</time>
      </trkpt>
      <trkpt lat="43.79336" lon="7.30019">
        <ele>716</ele>
        <time>2018-10-31T15:30:09Z</time>
      </trkpt>
      <trkpt lat="43.79373" lon="7.29882">
        <ele>714</ele>
        <time>2018-10-31T15:30:14Z</time>
      </trkpt>
      <trkpt lat="43.7944" lon="7.29777">
        <ele>710</ele>
        <time>2018-10-31T15:30:19Z</time>
      </trkpt>
      <trkpt lat="43.79525" lon="7.29609">
        <ele>710</ele>
        <time>2018-10-31T15:30:24Z</time>
      </trkpt>
      <trkpt lat="43.79568" lon="7.29528">
        <ele>720</ele>
        <time>2018-10-31T15:30:29Z</time>
      </trkpt>
      <trkpt lat="43.79611" lon="7.2947">
        <ele>732</ele>
        <time>2018-10-31T15:30:34Z</time>
      </trkpt>
      <trkpt lat="43.79564" lon="7.29543">
        <ele>718</ele>
        <time>2018-10-31T15:30:39Z</time>
      </trkpt>
      <trkpt lat="43.79517" lon="7.29633">
        <ele>709</ele>
        <time>2018-10-31T15:30:44Z</time>
      </trkpt>
      <trkpt lat="43.79523" lon="7.29478">
        <ele>704</ele>
        <time>2018-10-31T15:30:49Z</time>
      </trkpt>
      <trkpt lat="43.79537" lon="7.29382">
        <ele>692</ele>
        <time>2018-10-31T15:30:54Z</time>
      </trkpt>
      <trkpt lat="43.79565" lon="7.29345">
        <ele>688</ele>
        <time>2018-10-31T15:30:59Z</time>
      </trkpt>
      <trkpt lat="43.79728" lon="7.29251">
        <ele>677</ele>
        <time>2018-10-31T15:31:04Z</time>
      </trkpt>
      <trkpt lat="43.7976" lon="7.2924">
        <ele>672</ele>
        <time>2018-10-31T15:31:09Z</time>
      </trkpt>
      <trkpt lat="43.79808" lon="7.29255">
        <ele>669</ele>
        <time>2018-10-31T15:31:14Z</time>
      </trkpt>
      <trkpt lat="43.79808" lon="7.29242">
        <ele>663</ele>
        <time>2018-10-31T15:31:19Z</time>
      </trkpt>
      <trkpt lat="43.79923" lon="7.29283">
        <ele>642</ele>
        <time>2018-10-31T15:31:24Z</time>
      </trkpt>
      <trkpt lat="43.79954" lon="7.29264">
        <ele>631</ele>
        <time>2018-10-31T15:31:29Z</time>
      </trkpt>
      <trkpt lat="43.80044" lon="7.293">
        <ele>627</ele>
        <time>2018-10-31T15:31:34Z</time>
      </trkpt>
      <trkpt lat="43.80095" lon="7.2927">
        <ele>638</ele>
        <time>2018-10-31T15:31:39Z</time>
      </trkpt>
      <trkpt lat="43.80129" lon="7.2927">
        <ele>648</ele>
        <time>2018-10-31T15:31:44Z</time>
      </trkpt>
      <trkpt lat="43.80104" lon="7.29126">
        <ele>661</ele>
        <time>2018-10-31T15:31:49Z</time>
      </trkpt>
      <trkpt lat="43.80093" lon="7.29071">
        <ele>664</ele>
        <time>2018-10-31T15:31:54Z</time>
      </trkpt>
      <trkpt lat="43.80109" lon="7.28957">
        <ele>671</ele>
        <time>2018-10-31T15:31:59Z</time>
      </trkpt>
      <trkpt lat="43.80233" lon="7.28875">
        <ele>689</ele>
        <time>2018-10-31T15:32:04Z</time>
      </trkpt>
      <trkpt lat="43.80375" lon="7.28802">
        <ele>708</ele>
        <time>2018-10-31T15:32:09Z</time>
      </trkpt>
      <trkpt lat="43.80415" lon="7.28783">
        <ele>718</ele>
        <time>2018-10-31T15:32:14Z</time>
      </trkpt>
      <trkpt lat="43.80522" lon="7.28689">
        <ele>733</ele>
        <time>2018-10-31T15:32:19Z</time>
      </trkpt>
      <trkpt lat="43.80584" lon="7.28624">
        <ele>744</ele>
        <time>2018-10-31T15:32:24Z</time>
      </trkpt>
      <trkpt lat="43.80669" lon="7.28511">
        <ele>752</ele>
        <time>2018-10-31T15:32:29Z</time>
      </trkpt>
      <trkpt lat="43.80699" lon="7.28496">
        <ele>759</ele>
        <time>2018-10-31T15:32:34Z</time>
      </trkpt>
      <trkpt lat="43.8086" lon="7.2841">
        <ele>776</ele>
        <time>2018-10-31T15:32:39Z</time>
      </trkpt>
      <trkpt lat="43.8103" lon="7.28311">
        <ele>797</ele>
        <time>2018-10-31T15:32:44Z</time>
      </trkpt>
      <trkpt lat="43.81089" lon="7.28279">
        <ele>807</ele>
        <time>2018-10-31T15:32:49Z</time>
      </trkpt>
      <trkpt lat="43.81129" lon="7.2824">
        <ele>812</ele>
        <time>2018-10-31T15:32:54Z</time>
      </trkpt>
      <trkpt lat="43.81159" lon="7.28214">
        <ele>819</ele>
        <time>2018-10-31T15:32:59Z</time>
      </trkpt>
      <trkpt lat="43.81169" lon="7.28167">
        <ele>821</ele>
        <time>2018-10-31T15:33:04Z</time>
      </trkpt>
      <trkpt lat="43.8127" lon="7.28116">
        <ele>840</ele>
        <time>2018-10-31T15:33:09Z</time>
      </trkpt>
      <trkpt lat="43.81317" lon="7.28096">
        <ele>846</ele>
        <time>2018-10-31T15:33:14Z</time>
      </trkpt>
      <trkpt lat="43.81338" lon="7.28041">
        <ele>846</ele>
        <time>2018-10-31T15:33:19Z</time>
      </trkpt>
      <trkpt lat="43.81318" lon="7.28092">
        <ele>845</ele>
        <time>2018-10-31T15:33:24Z</time>
      </trkpt>
      <trkpt lat="43.81162" lon="7.28169">
        <ele>820</ele>
        <time>2018-10-31T15:33:29Z</time>
      </trkpt>
      <trkpt lat="43.81152" lon="7.28212">
        <ele>818</ele>
        <time>2018-10-31T15:33:34Z</time>
      </trkpt>
      <trkpt lat="43.80877" lon="7.28412">
        <ele>782</ele>
        <time>2018-10-31T15:33:39Z</time>
      </trkpt>
      <trkpt lat="43.80708" lon="7.28491">
        <ele>761</ele>
        <time>2018-10-31T15:33:44Z</time>
      </trkpt>
      <trkpt lat="43.80669" lon="7.28523">
        <ele>757</ele>
        <time>2018-10-31T15:33:49Z</time>
      </trkpt>
      <trkpt lat="43.80408" lon="7.28781">
        <ele>714</ele>
        <time>2018-10-31T15:33:54Z</time>
      </trkpt>
      <trkpt lat="43.80215" lon="7.28882">
        <ele>686</ele>
        <time>2018-10-31T15:33:59Z</time>
      </trkpt>
      <trkpt lat="43.80115" lon="7.28948">
        <ele>671</ele>
        <time>2018-10-31T15:34:04Z</time>
      </trkpt>
      <trkpt lat="43.80093" lon="7.29098">
        <ele>660</ele>
        <time>2018-10-31T15:34:09Z</time>
      </trkpt>
      <trkpt lat="43.8013" lon="7.29277">
        <ele>647</ele>
        <time>2018-10-31T15:34:14Z</time>
      </trkpt>
      <trkpt lat="43.8005" lon="7.29287">
        <ele>629</ele>
        <time>2018-10-31T15:34:19Z</time>
      </trkpt>
      <trkpt lat="43.80048" lon="7.29298">
        <ele>628</ele>
        <time>2018-10-31T15:34:24Z</time>
      </trkpt>
      <trkpt lat="43.8009" lon="7.29354">
        <ele>618</ele>
        <time>2018-10-31T15:34:29Z</time>
      </trkpt>
      <trkpt lat="43.80191" lon="7.29435">
        <ele>597</ele>
        <time>2018-10-31T15:34:34Z</time>
      </trkpt>
      <trkpt lat="43.80236" lon="7.29448">
        <ele>597</ele>
        <time>2018-10-31T15:34:39Z</time>
      </trkpt>
      <trkpt lat="43.80253" lon="7.29489">
        <ele>579</ele>
        <time>2018-10-31T15:34:44Z</time>
      </trkpt>
      <trkpt lat="43.80332" lon="7.29506">
        <ele>568</ele>
        <time>2018-10-31T15:34:49Z</time>
      </trkpt>
      <trkpt lat="43.80423" lon="7.2953">
        <ele>553</ele>
        <time>2018-10-31T15:34:54Z</time>
      </trkpt>
      <trkpt lat="43.80505" lon="7.29532">
        <ele>541</ele>
        <time>2018-10-31T15:34:59Z</time>
      </trkpt>
      <trkpt lat="43.80604" lon="7.29478">
        <ele>533</ele>
        <time>2018-10-31T15:35:04Z</time>
      </trkpt>
      <trkpt lat="43.80703" lon="7.29521">
        <ele>520</ele>
        <time>2018-10-31T15:35:09Z</time>
      </trkpt>
      <trkpt lat="43.80835" lon="7.29629">
        <ele>516</ele>
        <time>2018-10-31T15:35:14Z</time>
      </trkpt>
    </trkseg>
  </trk>
</gpx>